Aktualne dane pomiarowe

Uwaga, wersja testowa! Automatyczne pobieranie danych za pomocą narzędzi lub skryptów to umożliwiających jest zabronione.

Dane meteo z obszaru Polski uzyskane na podstawie depesz SYNOP pobieranych co godzinę z NWS. Najedź myszką na symbol przedstawiony w tabeli, aby uzyskać informacje co do jego znaczenia. Prosimy pamiętać, że to testowa wersja strony, która jeszcze nie jest ukończona. Stworzono również jest krótki FAQ dotyczący korzystania z tej podstrony Anomalie temperatury w chwili obecnej odniesione są do okresu referencyjnego 1951-2016. Okres ten będzie później zmieniony na 1981-2010. Kliknij ikonę aby pobrać plik CSV. Kliknij ikonę aby wygenerować mapę synoptyczną dla danego terminu.

Wybierz Datę:    

        

Jelenia Góra (12500)

Dane terminowe dla wybranej stacji. Kliknij datę, aby otrzymać dane z tego terminu dla wszystkich stacji.

TemperaturaZachmurzenieWiatrCiśnienieOpadyPogoda
 Data t td wb tx tn tg rh  Nt Nl Cl Cm Ch ws wd g1 g2 wx mslp ppp ch 24h 12h t ww ww w1 w2  
2019-09-22 23:00:00 4.9 4.5 4.5--- 9715.0wx-0---01015.0 973.0 -0.2---wx---
2019-09-22 22:00:00 5.3 4.7 4.8--- 9615.0wx-1wx--11014.9 973.0 -0.1---wx---
2019-09-22 21:00:00 5.8 4.8 5.1--- 9320.0wx-1wx--11014.8 973.0 0.0---wx---
2019-09-22 20:00:00 7.0 5.1 5.8--- 8822.0wx-1wx--11014.9 973.2 0.1---------
2019-09-22 19:00:00 8.7 5.6 6.8--- 8119.0wx-1wx--11014.5 973.1 0.1---------
2019-09-22 18:00:00 10.5 5.3 7.4 21.9 4.1- 7030.0wx-wx1wx--11014.1 973.0 0.0- 0.012------
2019-09-22 17:00:00 15.2 5.7 9.9--- 5350.0wx-wx3wx--31013.5 973.1 -0.1---------
2019-09-22 16:00:00 18.3 6.2 11.6--- 4550.0wx-wx3wx--31013.0 973.0 -0.7---------
2019-09-22 15:00:00 19.6 6.3 12.3--- 4250.0wx-5wx--51012.8 973.0 -1.2---------
2019-09-22 14:00:00 20.6 6.5 12.8--- 4050.0wx-5wx--51012.9 973.2 -1.7---------
2019-09-22 13:00:00 21.3 6.8 13.2--- 3950.0wx-4wx--41013.3 973.7 -1.9---------
2019-09-22 12:00:00 21.5 6.2 13.1--- 3735.0wx-4wx--41013.8 974.2 -2.1- 0.06------
2019-09-22 11:00:00 21.0 5.3 12.5--- 3640.0wx-4wx--41014.6 974.9 -1.8---------
2019-09-22 10:00:00 19.8 4.7 11.7--- 3750.0wx-5wx--51015.5 975.6 -1.5---------
2019-09-22 09:00:00 18.7 4.8 11.3--- 4050.0wx-5wx--51016.4 976.3 -1.0---------
2019-09-22 08:00:00 16.9 7.5 11.5--- 5445.0wx-1wx--11017.1 976.7 -0.9---------
2019-09-22 07:00:00 9.1 9.0 9.0--- 9924.0wx-0----1018.6 977.1 -0.7---------
2019-09-22 06:00:00 4.2 4.1 4.0 11.1 1.7 0 9915.0wx-1wx--11019.6 977.3 -0.5- 0.012wx-w1- 10.9
2019-09-22 05:00:00 1.9 1.8 1.7--- 990.1wx-1wx--11020.2 977.6 -0.9---wx-w1w2--
2019-09-22 04:00:00 2.1 2.0 1.9--- 990.1wx-1wx--11020.4 977.8 -1.4---wx-w1w2--
2019-09-22 03:00:00 2.8 2.7 2.6--- 990.2wx-0---01020.3 977.8 -1.7---wx---
2019-09-22 02:00:00 3.2 3.1 3.0--- 990.3wx-1wx--11021.0 978.5 -1.0---wx---
2019-09-22 01:00:00 3.7 3.4 3.4--- 984.0wx-0---01021.6 979.2 -0.7---wx---
2019-09-22 00:00:00 3.9 3.6 3.6--- 984.0wx-1wx--11021.9 979.5 -0.8- 0.06wx---
2019-09-21 23:00:00 4.7 4.4 4.4--- 984.0wx-0---01021.8 979.5 -1.1---wx---
2019-09-21 22:00:00 5.5 5.2 5.2--- 986.0wx-0---01022.1 979.9 -1.0---wx---
2019-09-21 21:00:00 6.3 5.7 5.8--- 9620.0wx-1wx--11022.4 980.3 -0.8---wx---
2019-09-21 20:00:00 7.0 5.6 6.0--- 9120.0wx-0---01022.6 980.6 -0.3---wx---
2019-09-21 19:00:00 9.4 8.3 8.6--- 9350.0wx-wx0---01022.5 980.9 0.0---wx---
2019-09-21 18:00:00 11.1 9.0 9.7 20.5 1.6- 8750.0wx-wx1wx--11022.5 981.1 0.0- 0.012------
2019-09-21 17:00:00 13.0 8.7 10.3--- 7550.0wx-wx0---01022.0 980.9 -0.6---------
2019-09-21 16:00:00 17.6 10.7 13.3--- 6450.0wx-wx1wx--11021.3 980.9 -1.1---------
2019-09-21 15:00:00 20.0 8.0 13.1--- 4650.0wx-wx1wx--11021.2 981.1 -1.4---------
2019-09-21 14:00:00 19.8 8.2 13.1--- 4745.0wx-wx1wx---1021.6 981.5 -1.4---------
2019-09-21 13:00:00 19.6 8.0 13.0--- 4735.0wx-1wx--11022.2 982.0 -1.7---------
2019-09-21 12:00:00 18.8 7.9 12.6--- 4950.0wx-1wx--11022.8 982.5 -1.6- 0.06wx-w1--
2019-09-21 11:00:00 17.8 6.6 11.5--- 4845.0wx-1wx--11023.4 982.9 -1.7---------
2019-09-21 10:00:00 15.9 5.5 10.2--- 5045.0wx-1wx--11024.5 983.7 -1.1---------
2019-09-21 09:00:00 13.9 7.2 10.0--- 6440.0wx-1wx--11025.2 984.1 -0.8---wx-w1--
2019-09-21 08:00:00 11.0 7.3 8.7--- 7828.0wx-0---01026.1 984.6 -0.3---------
2019-09-21 07:00:00 6.4 6.3 6.2--- 9917.0wx-1wx--11027.1 984.8 -0.1---wx---
2019-09-21 06:00:00 1.6 1.5 1.4 7.0 0.2 0 990.1wx-1wx--11027.9 984.9 -0.2- 0.012wx-w1- 10.0
2019-09-21 05:00:00 0.3 0.0 0.0--- 980.3wx-wx0---01028.1 984.9 -0.3---wx-w1w2--
2019-09-21 04:00:00 0.9 0.6 0.6--- 980.2wx-1wx---1028.0 984.9 -0.6---wx-w1w2--
2019-09-21 03:00:00 0.7 0.4 0.4--- 980.3wx-1wx--11028.3 985.1 -1.1---wx-w1w2--
2019-09-21 02:00:00 1.6 1.3 1.3--- 980.8wx-1wx--11028.2 985.2 -1.3---wx-w1--
2019-09-21 01:00:00 1.5 1.1 1.1--- 973.2wx-1wx--11028.6 985.5 -0.9---wx---
2019-09-21 00:00:00 2.1 1.7 1.7--- 975.0wx-1wx--11029.2 986.2 -0.5- 0.06wx---
1.4 ms

 

Print Friendly, PDF & Email